Airfield :
LOGIN :

Register | Disclaimer

   EN    FR    IT 

 










Legend :    VFR   Marginal VFR   IFR   Intensive IFR   Very Intensive IFR
Visi :
Ceiling :
>= 8 km
>= 3000ft
5 to 8 km
1000 to 3000 ft
1500m to 5 km
500 to 1000 ft
800 to 1500m
200 to 500 ft
< 800m
< 200 ft
Symbols :   Thunderstorms  Fog  Heavy snow  Heavy precipitations  Wind > 20 kt
SIGMETs :     Misc.  Thunderstorms  Icing  Turbulence  Mountain Waves  Volcanic Ashes






- Airport Elevation : 9 ft
- IATA code : MIR


DTMB - Habib Bourguliba Int. Monastir

CURRENT METAR :
  • 271130Z 35007KT 9999 SCT033 SCT040 17/07 Q1021

EXPIRED METARs :
  • 271100Z 34008KT 9999 SCT033 SCT040 17/07 Q1021
  • 271030Z 34008KT 8000 FEW033 17/07 Q1021
  • 271000Z 33008KT 8000 FEW033 17/10 Q1021
  • 270930Z 33010KT 8000 FEW033 16/10 Q1021
  • 270900Z 33011KT 8000 FEW033 15/09 Q1021

TAF TAF DTMB
Valid from the 27 at 12:00 until the 28 at 12:00 UTC


271100Z 2712/2812 32010KT 9999 SCT033
BECMG 2712/2714 06008KT
BECMG 2716/2718 12010KT
BECMG 2722/2724 21010KT
BECMG 2808/2810 28012KT



MET'MAP, your aeronautical weather chart ! - Copyright ORBIFLY December 2007 - Disclaimer

ORBIFLY MET'MAP TEAM :

Programming & Development : Alexandra Zaïnal
Concept & original design : Baudouin d'Aumeries
Assistance for programming : Marc-Olivier Méhu
Technical & hardware support : Manuel Goepfert

Contact : metmap@orbifly.com




SOURCES & CREDITS :

   NOAA